Terminal Aerodrome Forecast
Issued by NWS

Home | Current Version | Previous Version | Text Only | Print | Product List | Glossary Off
Versions: 1 2 3 4 5 6 7 8 9 10 11 12 13 14 15 16

000
FTUS43 KICT 271122
TAFRSL
TAF
KRSL 271122Z 2712/2812 32016G23KT P6SM VCTS OVC018CB
      TEMPO 2712/2713 5SM TSRA
     FM271600 29017G24KT P6SM BKN030
     FM280000 30018G25KT P6SM SCT100=

USA.gov is the U.S. government's official web portal to all federal, state and local government web resources and services.